sensor_id;sensor_type;location;lat;lon;timestamp;P1;durP1;ratioP1;P2;durP2;ratioP2
35745;SDS011;21870;42.812;74.628;2023-02-01T00:00:48;10.27;;;5.60;;
35745;SDS011;21870;42.812;74.628;2023-02-01T00:03:16;6.25;;;4.85;;
35745;SDS011;21870;42.812;74.628;2023-02-01T00:05:44;8.70;;;6.28;;
35745;SDS011;21870;42.812;74.628;2023-02-01T00:08:10;5.50;;;4.88;;
35745;SDS011;21870;42.812;74.628;2023-02-01T00:10:36;9.27;;;6.20;;
35745;SDS011;21870;42.812;74.628;2023-02-01T00:13:02;10.38;;;8.23;;
35745;SDS011;21870;42.812;74.628;2023-02-01T00:15:28;5.93;;;5.40;;
35745;SDS011;21870;42.812;74.628;2023-02-01T00:17:54;5.20;;;4.72;;
35745;SDS011;21870;42.812;74.628;2023-02-01T00:20:21;5.13;;;4.63;;
35745;SDS011;21870;42.812;74.628;2023-02-01T00:22:47;6.28;;;4.43;;
35745;SDS011;21870;42.812;74.628;2023-02-01T00:25:13;5.28;;;4.78;;
35745;SDS011;21870;42.812;74.628;2023-02-01T00:27:39;4.75;;;4.35;;
35745;SDS011;21870;42.812;74.628;2023-02-01T00:30:05;4.63;;;4.22;;
35745;SDS011;21870;42.812;74.628;2023-02-01T00:32:31;5.25;;;4.75;;
35745;SDS011;21870;42.812;74.628;2023-02-01T00:34:57;11.50;;;10.30;;
35745;SDS011;21870;42.812;74.628;2023-02-01T00:37:24;5.05;;;4.60;;
35745;SDS011;21870;42.812;74.628;2023-02-01T00:39:50;4.88;;;3.75;;
35745;SDS011;21870;42.812;74.628;2023-02-01T00:42:16;5.53;;;4.90;;
35745;SDS011;21870;42.812;74.628;2023-02-01T00:44:42;5.95;;;4.53;;
35745;SDS011;21870;42.812;74.628;2023-02-01T00:47:08;5.13;;;4.63;;
35745;SDS011;21870;42.812;74.628;2023-02-01T00:49:34;4.35;;;4.05;;
35745;SDS011;21870;42.812;74.628;2023-02-01T00:52:00;4.38;;;3.97;;
35745;SDS011;21870;42.812;74.628;2023-02-01T00:54:26;6.13;;;5.43;;
35745;SDS011;21870;42.812;74.628;2023-02-01T00:56:52;5.28;;;4.38;;
35745;SDS011;21870;42.812;74.628;2023-02-01T00:59:18;6.38;;;5.78;;
35745;SDS011;21870;42.812;74.628;2023-02-01T01:01:44;9.93;;;7.38;;
35745;SDS011;21870;42.812;74.628;2023-02-01T01:04:10;17.02;;;12.07;;
35745;SDS011;21870;42.812;74.628;2023-02-01T01:06:37;24.25;;;15.00;;
35745;SDS011;21870;42.812;74.628;2023-02-01T01:09:04;38.60;;;19.10;;
35745;SDS011;21870;42.812;74.628;2023-02-01T01:11:32;25.77;;;15.50;;
35745;SDS011;21870;42.812;74.628;2023-02-01T01:14:00;23.88;;;16.00;;
35745;SDS011;21870;42.812;74.628;2023-02-01T01:16:28;21.77;;;12.90;;
35745;SDS011;21870;42.812;74.628;2023-02-01T01:18:56;22.70;;;16.25;;
35745;SDS011;21870;42.812;74.628;2023-02-01T01:21:22;18.67;;;12.40;;
35745;SDS011;21870;42.812;74.628;2023-02-01T01:23:49;16.17;;;11.65;;
35745;SDS011;21870;42.812;74.628;2023-02-01T01:26:18;16.58;;;12.02;;
35745;SDS011;21870;42.812;74.628;2023-02-01T01:28:47;22.02;;;14.02;;
35745;SDS011;21870;42.812;74.628;2023-02-01T01:31:14;20.83;;;14.85;;
35745;SDS011;21870;42.812;74.628;2023-02-01T01:33:41;8.55;;;7.25;;
35745;SDS011;21870;42.812;74.628;2023-02-01T01:36:09;18.75;;;12.82;;
35745;SDS011;21870;42.812;74.628;2023-02-01T01:38:36;11.75;;;9.20;;
35745;SDS011;21870;42.812;74.628;2023-02-01T01:41:03;8.25;;;7.00;;
35745;SDS011;21870;42.812;74.628;2023-02-01T01:43:50;12.50;;;10.45;;
35745;SDS011;21870;42.812;74.628;2023-02-01T01:46:20;9.73;;;7.55;;
35745;SDS011;21870;42.812;74.628;2023-02-01T01:48:52;7.80;;;6.85;;
35745;SDS011;21870;42.812;74.628;2023-02-01T01:51:24;8.75;;;7.72;;
35745;SDS011;21870;42.812;74.628;2023-02-01T01:53:58;9.90;;;8.15;;
35745;SDS011;21870;42.812;74.628;2023-02-01T01:56:52;12.55;;;7.63;;
35745;SDS011;21870;42.812;74.628;2023-02-01T01:59:21;7.20;;;6.50;;
35745;SDS011;21870;42.812;74.628;2023-02-01T02:01:49;6.70;;;6.05;;
35745;SDS011;21870;42.812;74.628;2023-02-01T02:04:17;10.25;;;8.68;;
35745;SDS011;21870;42.812;74.628;2023-02-01T02:06:51;14.77;;;10.13;;
35745;SDS011;21870;42.812;74.628;2023-02-01T02:09:24;11.07;;;7.85;;
35745;SDS011;21870;42.812;74.628;2023-02-01T02:11:50;63.95;;;43.70;;
35745;SDS011;21870;42.812;74.628;2023-02-01T02:14:17;18.48;;;12.00;;
35745;SDS011;21870;42.812;74.628;2023-02-01T02:22:59;10.35;;;7.78;;
35745;SDS011;21870;42.812;74.628;2023-02-01T02:31:47;7.68;;;6.80;;
35745;SDS011;21870;42.812;74.628;2023-02-01T02:35:01;8.77;;;6.82;;
35745;SDS011;21870;42.812;74.628;2023-02-01T02:37:50;9.05;;;8.02;;
35745;SDS011;21870;42.812;74.628;2023-02-01T02:40:22;7.50;;;6.80;;
35745;SDS011;21870;42.812;74.628;2023-02-01T02:43:10;7.47;;;6.35;;
35745;SDS011;21870;42.812;74.628;2023-02-01T02:46:31;7.47;;;6.15;;
35745;SDS011;21870;42.812;74.628;2023-02-01T02:49:36;11.82;;;7.78;;
35745;SDS011;21870;42.812;74.628;2023-02-01T02:52:13;9.38;;;7.57;;
35745;SDS011;21870;42.812;74.628;2023-02-01T02:55:00;6.70;;;5.88;;
35745;SDS011;21870;42.812;74.628;2023-02-01T02:57:37;7.72;;;5.93;;
35745;SDS011;21870;42.812;74.628;2023-02-01T03:00:27;6.28;;;5.40;;
35745;SDS011;21870;42.812;74.628;2023-02-01T03:03:14;7.32;;;6.03;;
35745;SDS011;21870;42.812;74.628;2023-02-01T03:05:58;6.10;;;5.47;;
35745;SDS011;21870;42.812;74.628;2023-02-01T03:08:26;10.77;;;5.90;;
35745;SDS011;21870;42.812;74.628;2023-02-01T03:10:55;6.47;;;5.88;;
35745;SDS011;21870;42.812;74.628;2023-02-01T03:16:12;9.98;;;5.97;;
35745;SDS011;21870;42.812;74.628;2023-02-01T03:19:29;6.00;;;5.40;;
35745;SDS011;21870;42.812;74.628;2023-02-01T03:22:11;5.40;;;4.90;;
35745;SDS011;21870;42.812;74.628;2023-02-01T03:24:41;7.60;;;4.88;;
35745;SDS011;21870;42.812;74.628;2023-02-01T03:32:47;8.32;;;5.22;;
35745;SDS011;21870;42.812;74.628;2023-02-01T03:38:06;8.73;;;6.55;;
35745;SDS011;21870;42.812;74.628;2023-02-01T03:43:35;13.75;;;10.68;;
35745;SDS011;21870;42.812;74.628;2023-02-01T03:46:11;32.75;;;16.45;;
35745;SDS011;21870;42.812;74.628;2023-02-01T03:48:42;17.60;;;12.70;;
35745;SDS011;21870;42.812;74.628;2023-02-01T03:51:09;11.02;;;7.05;;
35745;SDS011;21870;42.812;74.628;2023-02-01T03:53:37;8.38;;;6.15;;
35745;SDS011;21870;42.812;74.628;2023-02-01T03:56:06;9.07;;;6.20;;
35745;SDS011;21870;42.812;74.628;2023-02-01T03:58:34;12.65;;;6.68;;
35745;SDS011;21870;42.812;74.628;2023-02-01T04:01:00;11.68;;;8.90;;
35745;SDS011;21870;42.812;74.628;2023-02-01T04:03:26;10.02;;;7.10;;
35745;SDS011;21870;42.812;74.628;2023-02-01T04:05:53;16.05;;;9.98;;
35745;SDS011;21870;42.812;74.628;2023-02-01T04:08:20;17.33;;;10.90;;
35745;SDS011;21870;42.812;74.628;2023-02-01T04:10:47;20.25;;;11.75;;
35745;SDS011;21870;42.812;74.628;2023-02-01T04:13:13;12.90;;;8.23;;
35745;SDS011;21870;42.812;74.628;2023-02-01T04:15:39;19.80;;;16.42;;
35745;SDS011;21870;42.812;74.628;2023-02-01T04:18:05;11.60;;;9.25;;
35745;SDS011;21870;42.812;74.628;2023-02-01T04:20:31;14.00;;;7.35;;
35745;SDS011;21870;42.812;74.628;2023-02-01T04:22:57;18.05;;;8.10;;
35745;SDS011;21870;42.812;74.628;2023-02-01T04:25:24;12.13;;;8.43;;
35745;SDS011;21870;42.812;74.628;2023-02-01T04:27:50;15.88;;;9.13;;
35745;SDS011;21870;42.812;74.628;2023-02-01T04:30:16;17.23;;;9.70;;
35745;SDS011;21870;42.812;74.628;2023-02-01T04:32:43;18.95;;;9.32;;
35745;SDS011;21870;42.812;74.628;2023-02-01T04:35:09;20.23;;;10.13;;
35745;SDS011;21870;42.812;74.628;2023-02-01T04:37:36;11.65;;;8.60;;
35745;SDS011;21870;42.812;74.628;2023-02-01T04:40:03;20.58;;;8.55;;
35745;SDS011;21870;42.812;74.628;2023-02-01T04:42:29;16.40;;;8.98;;
35745;SDS011;21870;42.812;74.628;2023-02-01T04:44:55;15.65;;;8.15;;
35745;SDS011;21870;42.812;74.628;2023-02-01T04:47:21;17.67;;;11.10;;
35745;SDS011;21870;42.812;74.628;2023-02-01T04:49:47;14.63;;;9.93;;
35745;SDS011;21870;42.812;74.628;2023-02-01T04:52:13;23.92;;;11.40;;
35745;SDS011;21870;42.812;74.628;2023-02-01T04:54:39;12.63;;;8.95;;
35745;SDS011;21870;42.812;74.628;2023-02-01T04:57:05;16.42;;;9.50;;
35745;SDS011;21870;42.812;74.628;2023-02-01T04:59:39;23.55;;;10.73;;
35745;SDS011;21870;42.812;74.628;2023-02-01T05:02:05;13.20;;;8.70;;
35745;SDS011;21870;42.812;74.628;2023-02-01T05:04:31;11.27;;;8.55;;
35745;SDS011;21870;42.812;74.628;2023-02-01T05:06:57;18.25;;;9.05;;
35745;SDS011;21870;42.812;74.628;2023-02-01T05:09:31;17.73;;;9.25;;
35745;SDS011;21870;42.812;74.628;2023-02-01T05:11:57;18.98;;;9.40;;
35745;SDS011;21870;42.812;74.628;2023-02-01T05:14:41;11.40;;;7.50;;
35745;SDS011;21870;42.812;74.628;2023-02-01T05:17:07;10.07;;;7.78;;
35745;SDS011;21870;42.812;74.628;2023-02-01T05:19:33;12.77;;;8.32;;
35745;SDS011;21870;42.812;74.628;2023-02-01T05:21:59;12.55;;;9.27;;
35745;SDS011;21870;42.812;74.628;2023-02-01T05:24:25;15.70;;;7.47;;
35745;SDS011;21870;42.812;74.628;2023-02-01T05:26:52;12.95;;;8.38;;
35745;SDS011;21870;42.812;74.628;2023-02-01T05:29:18;11.82;;;9.48;;
35745;SDS011;21870;42.812;74.628;2023-02-01T05:31:45;17.10;;;9.68;;
35745;SDS011;21870;42.812;74.628;2023-02-01T05:34:11;12.10;;;8.05;;
35745;SDS011;21870;42.812;74.628;2023-02-01T05:36:38;13.32;;;9.30;;
35745;SDS011;21870;42.812;74.628;2023-02-01T05:39:04;22.52;;;9.38;;
35745;SDS011;21870;42.812;74.628;2023-02-01T05:41:30;27.75;;;10.88;;
35745;SDS011;21870;42.812;74.628;2023-02-01T05:43:56;16.75;;;9.73;;
35745;SDS011;21870;42.812;74.628;2023-02-01T05:46:30;23.63;;;11.52;;
35745;SDS011;21870;42.812;74.628;2023-02-01T05:48:56;20.50;;;12.43;;
35745;SDS011;21870;42.812;74.628;2023-02-01T05:51:22;17.95;;;11.25;;
35745;SDS011;21870;42.812;74.628;2023-02-01T05:53:48;21.98;;;12.10;;
35745;SDS011;21870;42.812;74.628;2023-02-01T05:56:14;24.25;;;12.70;;
35745;SDS011;21870;42.812;74.628;2023-02-01T05:58:40;22.02;;;9.60;;
35745;SDS011;21870;42.812;74.628;2023-02-01T06:01:06;20.75;;;7.97;;
35745;SDS011;21870;42.812;74.628;2023-02-01T06:03:32;11.60;;;5.03;;
35745;SDS011;21870;42.812;74.628;2023-02-01T06:06:01;11.13;;;5.57;;
35745;SDS011;21870;42.812;74.628;2023-02-01T06:08:27;15.20;;;6.05;;
35745;SDS011;21870;42.812;74.628;2023-02-01T06:11:00;16.45;;;7.05;;
35745;SDS011;21870;42.812;74.628;2023-02-01T06:13:27;19.00;;;7.18;;
35745;SDS011;21870;42.812;74.628;2023-02-01T06:15:54;23.92;;;8.90;;
35745;SDS011;21870;42.812;74.628;2023-02-01T06:18:21;19.25;;;6.57;;
35745;SDS011;21870;42.812;74.628;2023-02-01T06:20:51;19.25;;;8.75;;
35745;SDS011;21870;42.812;74.628;2023-02-01T06:23:18;16.50;;;6.65;;
35745;SDS011;21870;42.812;74.628;2023-02-01T06:25:52;12.68;;;5.32;;
35745;SDS011;21870;42.812;74.628;2023-02-01T06:28:24;7.68;;;5.75;;
35745;SDS011;21870;42.812;74.628;2023-02-01T06:30:57;10.82;;;6.13;;
35745;SDS011;21870;42.812;74.628;2023-02-01T06:33:28;17.73;;;7.32;;
35745;SDS011;21870;42.812;74.628;2023-02-01T06:36:00;13.90;;;7.97;;
35745;SDS011;21870;42.812;74.628;2023-02-01T06:38:29;13.50;;;7.70;;
35745;SDS011;21870;42.812;74.628;2023-02-01T06:40:56;13.48;;;8.02;;
35745;SDS011;21870;42.812;74.628;2023-02-01T06:43:23;16.17;;;9.98;;
35745;SDS011;21870;42.812;74.628;2023-02-01T06:45:51;19.75;;;10.02;;
35745;SDS011;21870;42.812;74.628;2023-02-01T06:48:17;29.00;;;11.38;;
35745;SDS011;21870;42.812;74.628;2023-02-01T06:50:43;20.13;;;8.82;;
35745;SDS011;21870;42.812;74.628;2023-02-01T06:53:10;23.45;;;12.50;;
35745;SDS011;21870;42.812;74.628;2023-02-01T06:55:36;19.60;;;8.95;;
35745;SDS011;21870;42.812;74.628;2023-02-01T06:58:02;11.60;;;5.88;;
35745;SDS011;21870;42.812;74.628;2023-02-01T07:00:29;12.15;;;5.43;;
35745;SDS011;21870;42.812;74.628;2023-02-01T07:02:56;7.43;;;5.53;;
35745;SDS011;21870;42.812;74.628;2023-02-01T07:05:24;5.75;;;4.78;;
35745;SDS011;21870;42.812;74.628;2023-02-01T07:07:50;11.27;;;5.20;;
35745;SDS011;21870;42.812;74.628;2023-02-01T07:10:19;11.25;;;5.03;;
35745;SDS011;21870;42.812;74.628;2023-02-01T07:12:48;13.93;;;6.63;;
35745;SDS011;21870;42.812;74.628;2023-02-01T07:15:14;12.65;;;7.05;;
35745;SDS011;21870;42.812;74.628;2023-02-01T07:17:40;11.15;;;7.30;;
35745;SDS011;21870;42.812;74.628;2023-02-01T07:20:09;11.32;;;8.43;;
35745;SDS011;21870;42.812;74.628;2023-02-01T07:22:35;8.48;;;6.47;;
35745;SDS011;21870;42.812;74.628;2023-02-01T07:25:02;9.13;;;6.90;;
35745;SDS011;21870;42.812;74.628;2023-02-01T07:27:28;11.90;;;7.43;;
35745;SDS011;21870;42.812;74.628;2023-02-01T07:29:54;12.95;;;7.05;;
35745;SDS011;21870;42.812;74.628;2023-02-01T07:32:20;14.68;;;7.72;;
35745;SDS011;21870;42.812;74.628;2023-02-01T07:34:50;11.57;;;8.10;;
35745;SDS011;21870;42.812;74.628;2023-02-01T07:37:16;13.50;;;6.70;;
35745;SDS011;21870;42.812;74.628;2023-02-01T07:39:42;9.88;;;6.55;;
35745;SDS011;21870;42.812;74.628;2023-02-01T07:42:08;9.25;;;7.53;;
35745;SDS011;21870;42.812;74.628;2023-02-01T07:44:34;18.02;;;8.50;;
35745;SDS011;21870;42.812;74.628;2023-02-01T07:47:00;18.30;;;7.63;;
35745;SDS011;21870;42.812;74.628;2023-02-01T07:49:26;16.48;;;10.95;;
35745;SDS011;21870;42.812;74.628;2023-02-01T07:51:52;15.35;;;11.07;;
35745;SDS011;21870;42.812;74.628;2023-02-01T07:54:19;23.42;;;15.73;;
35745;SDS011;21870;42.812;74.628;2023-02-01T07:56:45;23.50;;;14.85;;
35745;SDS011;21870;42.812;74.628;2023-02-01T07:59:11;27.20;;;13.75;;
35745;SDS011;21870;42.812;74.628;2023-02-01T08:01:37;18.23;;;13.60;;
35745;SDS011;21870;42.812;74.628;2023-02-01T08:04:03;17.05;;;12.95;;
35745;SDS011;21870;42.812;74.628;2023-02-01T08:06:30;19.50;;;13.55;;
35745;SDS011;21870;42.812;74.628;2023-02-01T08:08:59;19.23;;;14.63;;
35745;SDS011;21870;42.812;74.628;2023-02-01T08:11:25;17.35;;;13.65;;
35745;SDS011;21870;42.812;74.628;2023-02-01T08:13:52;18.48;;;11.93;;
35745;SDS011;21870;42.812;74.628;2023-02-01T08:16:18;18.52;;;14.07;;
35745;SDS011;21870;42.812;74.628;2023-02-01T08:18:45;14.05;;;10.80;;
35745;SDS011;21870;42.812;74.628;2023-02-01T08:21:12;15.98;;;11.40;;
35745;SDS011;21870;42.812;74.628;2023-02-01T08:23:49;11.60;;;9.18;;
35745;SDS011;21870;42.812;74.628;2023-02-01T08:28:50;13.40;;;9.13;;
35745;SDS011;21870;42.812;74.628;2023-02-01T08:31:20;10.07;;;7.65;;
35745;SDS011;21870;42.812;74.628;2023-02-01T08:33:48;8.88;;;7.97;;
35745;SDS011;21870;42.812;74.628;2023-02-01T08:36:19;10.32;;;8.38;;
35745;SDS011;21870;42.812;74.628;2023-02-01T08:38:46;13.77;;;10.57;;
35745;SDS011;21870;42.812;74.628;2023-02-01T08:41:13;11.65;;;8.40;;
35745;SDS011;21870;42.812;74.628;2023-02-01T08:43:42;15.00;;;11.35;;
35745;SDS011;21870;42.812;74.628;2023-02-01T08:46:09;11.77;;;8.88;;
35745;SDS011;21870;42.812;74.628;2023-02-01T08:48:36;16.30;;;10.02;;
35745;SDS011;21870;42.812;74.628;2023-02-01T08:51:03;14.38;;;10.27;;
35745;SDS011;21870;42.812;74.628;2023-02-01T08:53:33;15.52;;;10.45;;
35745;SDS011;21870;42.812;74.628;2023-02-01T08:55:59;12.55;;;9.35;;
35745;SDS011;21870;42.812;74.628;2023-02-01T08:58:26;16.52;;;10.13;;
35745;SDS011;21870;42.812;74.628;2023-02-01T09:00:52;15.98;;;10.38;;
35745;SDS011;21870;42.812;74.628;2023-02-01T09:03:18;12.63;;;9.93;;
35745;SDS011;21870;42.812;74.628;2023-02-01T09:05:44;14.65;;;9.40;;
35745;SDS011;21870;42.812;74.628;2023-02-01T09:08:11;15.57;;;9.95;;
35745;SDS011;21870;42.812;74.628;2023-02-01T09:10:40;17.38;;;10.02;;
35745;SDS011;21870;42.812;74.628;2023-02-01T09:13:08;15.45;;;9.35;;
35745;SDS011;21870;42.812;74.628;2023-02-01T09:15:34;12.85;;;7.82;;
35745;SDS011;21870;42.812;74.628;2023-02-01T09:18:01;15.32;;;9.30;;
35745;SDS011;21870;42.812;74.628;2023-02-01T09:20:30;15.32;;;10.00;;
35745;SDS011;21870;42.812;74.628;2023-02-01T09:22:57;14.52;;;10.90;;
35745;SDS011;21870;42.812;74.628;2023-02-01T09:25:23;14.00;;;8.98;;
35745;SDS011;21870;42.812;74.628;2023-02-01T09:27:49;15.38;;;8.70;;
35745;SDS011;21870;42.812;74.628;2023-02-01T09:30:15;11.23;;;9.95;;
35745;SDS011;21870;42.812;74.628;2023-02-01T09:32:41;14.32;;;10.25;;
35745;SDS011;21870;42.812;74.628;2023-02-01T09:35:07;18.52;;;11.05;;
35745;SDS011;21870;42.812;74.628;2023-02-01T09:37:34;14.65;;;10.55;;
35745;SDS011;21870;42.812;74.628;2023-02-01T09:40:01;17.38;;;10.98;;
35745;SDS011;21870;42.812;74.628;2023-02-01T09:47:38;14.80;;;11.52;;
35745;SDS011;21870;42.812;74.628;2023-02-01T09:55:51;61.33;;;46.78;;
35745;SDS011;21870;42.812;74.628;2023-02-01T09:58:37;66.05;;;49.75;;
35745;SDS011;21870;42.812;74.628;2023-02-01T10:01:19;66.72;;;48.65;;
35745;SDS011;21870;42.812;74.628;2023-02-01T10:03:50;74.72;;;56.35;;
35745;SDS011;21870;42.812;74.628;2023-02-01T10:06:26;66.78;;;55.75;;
35745;SDS011;21870;42.812;74.628;2023-02-01T10:22:43;71.50;;;55.53;;
35745;SDS011;21870;42.812;74.628;2023-02-01T10:27:57;81.00;;;60.10;;
35745;SDS011;21870;42.812;74.628;2023-02-01T10:30:31;75.53;;;58.22;;
35745;SDS011;21870;42.812;74.628;2023-02-01T10:33:24;81.93;;;61.13;;
35745;SDS011;21870;42.812;74.628;2023-02-01T10:38:44;82.03;;;62.40;;
35745;SDS011;21870;42.812;74.628;2023-02-01T10:41:12;77.15;;;61.80;;
35745;SDS011;21870;42.812;74.628;2023-02-01T10:43:44;86.47;;;66.50;;
35745;SDS011;21870;42.812;74.628;2023-02-01T10:46:15;97.55;;;64.60;;
35745;SDS011;21870;42.812;74.628;2023-02-01T10:48:42;88.47;;;64.22;;
35745;SDS011;21870;42.812;74.628;2023-02-01T10:51:57;81.75;;;63.90;;
35745;SDS011;21870;42.812;74.628;2023-02-01T10:54:08;87.32;;;64.80;;
35745;SDS011;21870;42.812;74.628;2023-02-01T10:56:43;95.65;;;66.78;;
35745;SDS011;21870;42.812;74.628;2023-02-01T10:59:17;87.15;;;67.68;;
35745;SDS011;21870;42.812;74.628;2023-02-01T11:01:49;96.57;;;67.45;;
35745;SDS011;21870;42.812;74.628;2023-02-01T11:04:22;97.35;;;67.60;;
35745;SDS011;21870;42.812;74.628;2023-02-01T11:07:13;94.75;;;69.97;;
35745;SDS011;21870;42.812;74.628;2023-02-01T11:09:49;101.45;;;68.07;;
35745;SDS011;21870;42.812;74.628;2023-02-01T11:17:45;93.10;;;67.07;;
35745;SDS011;21870;42.812;74.628;2023-02-01T11:20:17;101.15;;;68.63;;
35745;SDS011;21870;42.812;74.628;2023-02-01T11:23:02;97.32;;;66.50;;
35745;SDS011;21870;42.812;74.628;2023-02-01T11:25:28;90.57;;;67.90;;
35745;SDS011;21870;42.812;74.628;2023-02-01T11:27:57;97.15;;;70.95;;
35745;SDS011;21870;42.812;74.628;2023-02-01T11:30:31;106.82;;;75.38;;
35745;SDS011;21870;42.812;74.628;2023-02-01T11:33:04;101.30;;;73.65;;
35745;SDS011;21870;42.812;74.628;2023-02-01T11:35:32;100.70;;;71.65;;
35745;SDS011;21870;42.812;74.628;2023-02-01T11:38:09;107.75;;;74.25;;
35745;SDS011;21870;42.812;74.628;2023-02-01T11:40:44;88.60;;;70.38;;
35745;SDS011;21870;42.812;74.628;2023-02-01T11:43:27;99.00;;;72.03;;
35745;SDS011;21870;42.812;74.628;2023-02-01T11:45:55;97.75;;;66.28;;
35745;SDS011;21870;42.812;74.628;2023-02-01T11:48:26;89.28;;;67.72;;
35745;SDS011;21870;42.812;74.628;2023-02-01T11:54:07;90.30;;;64.80;;
35745;SDS011;21870;42.812;74.628;2023-02-01T11:57:04;87.28;;;62.28;;
35745;SDS011;21870;42.812;74.628;2023-02-01T12:05:44;79.05;;;56.90;;
35745;SDS011;21870;42.812;74.628;2023-02-01T12:14:23;81.45;;;62.25;;
35745;SDS011;21870;42.812;74.628;2023-02-01T12:30:20;118.07;;;92.57;;
35745;SDS011;21870;42.812;74.628;2023-02-01T12:41:45;81.78;;;58.30;;
35745;SDS011;21870;42.812;74.628;2023-02-01T12:52:51;86.88;;;65.35;;
35745;SDS011;21870;42.812;74.628;2023-02-01T12:55:26;89.57;;;64.30;;
35745;SDS011;21870;42.812;74.628;2023-02-01T13:03:17;92.28;;;66.88;;
35745;SDS011;21870;42.812;74.628;2023-02-01T13:06:10;97.70;;;67.30;;
35745;SDS011;21870;42.812;74.628;2023-02-01T13:11:39;95.20;;;67.70;;
35745;SDS011;21870;42.812;74.628;2023-02-01T13:16:52;99.50;;;68.72;;
35745;SDS011;21870;42.812;74.628;2023-02-01T13:22:06;137.00;;;97.15;;
35745;SDS011;21870;42.812;74.628;2023-02-01T13:24:57;169.00;;;118.93;;
35745;SDS011;21870;42.812;74.628;2023-02-01T13:27:37;170.07;;;120.47;;
35745;SDS011;21870;42.812;74.628;2023-02-01T13:30:16;193.98;;;142.45;;
35745;SDS011;21870;42.812;74.628;2023-02-01T13:41:28;171.35;;;121.85;;
35745;SDS011;21870;42.812;74.628;2023-02-01T13:44:12;171.90;;;122.50;;
35745;SDS011;21870;42.812;74.628;2023-02-01T13:46:43;158.88;;;114.32;;
35745;SDS011;21870;42.812;74.628;2023-02-01T13:49:25;157.98;;;112.85;;
35745;SDS011;21870;42.812;74.628;2023-02-01T13:51:55;156.63;;;109.90;;
35745;SDS011;21870;42.812;74.628;2023-02-01T13:54:29;138.45;;;96.68;;
35745;SDS011;21870;42.812;74.628;2023-02-01T13:57:05;170.18;;;114.38;;
35745;SDS011;21870;42.812;74.628;2023-02-01T14:05:09;140.70;;;96.35;;
35745;SDS011;21870;42.812;74.628;2023-02-01T14:10:47;142.35;;;114.15;;
35745;SDS011;21870;42.812;74.628;2023-02-01T14:26:19;176.77;;;117.63;;
35745;SDS011;21870;42.812;74.628;2023-02-01T14:29:26;170.07;;;114.78;;
35745;SDS011;21870;42.812;74.628;2023-02-01T14:39:56;119.38;;;81.63;;
35745;SDS011;21870;42.812;74.628;2023-02-01T14:42:37;108.25;;;75.82;;
35745;SDS011;21870;42.812;74.628;2023-02-01T14:47:48;115.80;;;78.82;;
35745;SDS011;21870;42.812;74.628;2023-02-01T14:55:46;104.32;;;79.18;;
35745;SDS011;21870;42.812;74.628;2023-02-01T15:06:42;64.57;;;46.13;;
35745;SDS011;21870;42.812;74.628;2023-02-01T15:09:46;63.15;;;42.60;;
35745;SDS011;21870;42.812;74.628;2023-02-01T15:17:41;65.65;;;46.45;;
35745;SDS011;21870;42.812;74.628;2023-02-01T15:20:18;64.68;;;45.17;;
35745;SDS011;21870;42.812;74.628;2023-02-01T15:22:52;47.17;;;35.50;;
35745;SDS011;21870;42.812;74.628;2023-02-01T15:25:45;38.50;;;28.95;;
35745;SDS011;21870;42.812;74.628;2023-02-01T15:28:13;46.97;;;33.67;;
35745;SDS011;21870;42.812;74.628;2023-02-01T15:30:50;109.25;;;86.35;;
35745;SDS011;21870;42.812;74.628;2023-02-01T15:33:24;39.38;;;30.85;;
35745;SDS011;21870;42.812;74.628;2023-02-01T15:35:52;37.67;;;28.25;;
35745;SDS011;21870;42.812;74.628;2023-02-01T15:38:32;42.50;;;29.98;;
35745;SDS011;21870;42.812;74.628;2023-02-01T15:41:11;35.55;;;26.75;;
35745;SDS011;21870;42.812;74.628;2023-02-01T15:49:16;36.65;;;26.35;;
35745;SDS011;21870;42.812;74.628;2023-02-01T15:51:43;38.67;;;27.20;;
35745;SDS011;21870;42.812;74.628;2023-02-01T15:54:18;33.50;;;26.10;;
35745;SDS011;21870;42.812;74.628;2023-02-01T15:56:52;40.28;;;28.15;;
35745;SDS011;21870;42.812;74.628;2023-02-01T15:59:24;34.53;;;25.33;;
35745;SDS011;21870;42.812;74.628;2023-02-01T16:01:55;34.85;;;25.95;;
35745;SDS011;21870;42.812;74.628;2023-02-01T16:04:22;33.78;;;24.13;;
35745;SDS011;21870;42.812;74.628;2023-02-01T16:06:53;25.50;;;21.05;;
35745;SDS011;21870;42.812;74.628;2023-02-01T16:09:22;25.33;;;20.40;;
35745;SDS011;21870;42.812;74.628;2023-02-01T16:11:57;26.75;;;20.33;;
35745;SDS011;21870;42.812;74.628;2023-02-01T16:14:24;26.55;;;20.52;;
35745;SDS011;21870;42.812;74.628;2023-02-01T16:16:52;28.38;;;21.02;;
35745;SDS011;21870;42.812;74.628;2023-02-01T16:19:19;36.97;;;29.95;;
35745;SDS011;21870;42.812;74.628;2023-02-01T16:21:47;31.73;;;24.88;;
35745;SDS011;21870;42.812;74.628;2023-02-01T16:24:13;25.95;;;20.30;;
35745;SDS011;21870;42.812;74.628;2023-02-01T16:26:39;24.90;;;18.98;;
35745;SDS011;21870;42.812;74.628;2023-02-01T16:29:05;25.83;;;18.83;;
35745;SDS011;21870;42.812;74.628;2023-02-01T16:31:37;24.88;;;17.80;;
35745;SDS011;21870;42.812;74.628;2023-02-01T16:34:05;25.08;;;18.98;;
35745;SDS011;21870;42.812;74.628;2023-02-01T16:36:32;23.05;;;16.25;;
35745;SDS011;21870;42.812;74.628;2023-02-01T16:38:58;18.02;;;14.93;;
35745;SDS011;21870;42.812;74.628;2023-02-01T16:41:25;19.70;;;16.25;;
35745;SDS011;21870;42.812;74.628;2023-02-01T16:43:53;18.23;;;14.48;;
35745;SDS011;21870;42.812;74.628;2023-02-01T16:46:21;21.05;;;14.52;;
35745;SDS011;21870;42.812;74.628;2023-02-01T16:48:59;16.42;;;14.15;;
35745;SDS011;21870;42.812;74.628;2023-02-01T16:51:28;21.88;;;16.23;;
35745;SDS011;21870;42.812;74.628;2023-02-01T16:53:58;18.38;;;14.38;;
35745;SDS011;21870;42.812;74.628;2023-02-01T16:56:28;30.45;;;19.08;;
35745;SDS011;21870;42.812;74.628;2023-02-01T16:58:55;26.10;;;18.42;;
35745;SDS011;21870;42.812;74.628;2023-02-01T17:01:22;22.35;;;15.93;;
35745;SDS011;21870;42.812;74.628;2023-02-01T17:03:49;16.23;;;13.68;;
35745;SDS011;21870;42.812;74.628;2023-02-01T17:06:17;14.43;;;10.18;;
35745;SDS011;21870;42.812;74.628;2023-02-01T17:08:52;12.52;;;11.02;;
35745;SDS011;21870;42.812;74.628;2023-02-01T17:11:20;14.85;;;11.23;;
35745;SDS011;21870;42.812;74.628;2023-02-01T17:13:47;12.82;;;10.13;;
35745;SDS011;21870;42.812;74.628;2023-02-01T17:16:20;16.38;;;10.65;;
35745;SDS011;21870;42.812;74.628;2023-02-01T17:18:54;18.77;;;10.48;;
35745;SDS011;21870;42.812;74.628;2023-02-01T17:21:27;11.43;;;8.70;;
35745;SDS011;21870;42.812;74.628;2023-02-01T17:23:57;12.95;;;9.15;;
35745;SDS011;21870;42.812;74.628;2023-02-01T17:26:24;11.88;;;8.63;;
35745;SDS011;21870;42.812;74.628;2023-02-01T17:28:50;13.88;;;10.38;;
35745;SDS011;21870;42.812;74.628;2023-02-01T17:31:16;13.80;;;9.55;;
35745;SDS011;21870;42.812;74.628;2023-02-01T17:33:43;14.25;;;10.40;;
35745;SDS011;21870;42.812;74.628;2023-02-01T17:36:13;11.73;;;9.40;;
35745;SDS011;21870;42.812;74.628;2023-02-01T17:38:42;14.88;;;10.77;;
35745;SDS011;21870;42.812;74.628;2023-02-01T17:41:09;14.40;;;10.63;;
35745;SDS011;21870;42.812;74.628;2023-02-01T17:43:36;14.43;;;11.05;;
35745;SDS011;21870;42.812;74.628;2023-02-01T17:46:04;11.40;;;9.13;;